sensor_id;sensor_type;location;lat;lon;timestamp;pressure;altitude;pressure_sealevel;temperature;humidity
70015;BME280;57358;51.094;6.760;2023-05-23T00:01:03;100959.22;;;13.25;100.00
70015;BME280;57358;51.094;6.760;2023-05-23T00:03:33;101161.84;;;14.52;100.00
70015;BME280;57358;51.094;6.760;2023-05-23T00:06:01;101168.03;;;14.51;100.00
70015;BME280;57358;51.094;6.760;2023-05-23T00:08:27;100817.13;;;12.32;100.00
70015;BME280;57358;51.094;6.760;2023-05-23T00:10:54;101112.59;;;14.08;100.00
70015;BME280;57358;51.094;6.760;2023-05-23T00:13:20;101012.16;;;13.52;100.00
70015;BME280;57358;51.094;6.760;2023-05-23T00:15:47;101163.50;;;14.53;100.00
70015;BME280;57358;51.094;6.760;2023-05-23T00:18:13;101123.72;;;14.27;100.00
70015;BME280;57358;51.094;6.760;2023-05-23T00:20:42;101176.00;;;14.65;100.00
70015;BME280;57358;51.094;6.760;2023-05-23T00:23:10;101158.16;;;14.54;100.00
70015;BME280;57358;51.094;6.760;2023-05-23T00:25:38;101094.31;;;14.33;100.00
70015;BME280;57358;51.094;6.760;2023-05-23T00:28:06;101069.78;;;14.03;100.00
70015;BME280;57358;51.094;6.760;2023-05-23T00:30:33;101154.69;;;14.68;100.00
70015;BME280;57358;51.094;6.760;2023-05-23T00:33:00;101180.53;;;14.92;100.00
70015;BME280;57358;51.094;6.760;2023-05-23T00:35:26;101182.88;;;14.96;100.00
70015;BME280;57358;51.094;6.760;2023-05-23T00:37:53;101180.97;;;14.99;100.00
70015;BME280;57358;51.094;6.760;2023-05-23T00:40:21;101145.91;;;14.82;100.00
70015;BME280;57358;51.094;6.760;2023-05-23T00:42:47;101094.84;;;14.39;100.00
70015;BME280;57358;51.094;6.760;2023-05-23T00:45:14;101152.13;;;14.81;100.00
70015;BME280;57358;51.094;6.760;2023-05-23T00:47:43;101164.47;;;14.95;100.00
70015;BME280;57358;51.094;6.760;2023-05-23T00:50:12;101115.53;;;14.61;100.00
70015;BME280;57358;51.094;6.760;2023-05-23T00:52:40;101132.50;;;14.71;100.00
70015;BME280;57358;51.094;6.760;2023-05-23T00:55:08;101195.22;;;15.10;100.00
70015;BME280;57358;51.094;6.760;2023-05-23T00:57:35;101189.94;;;15.10;100.00
70015;BME280;57358;51.094;6.760;2023-05-23T01:00:17;101192.28;;;15.15;100.00
70015;BME280;57358;51.094;6.760;2023-05-23T01:02:46;101181.81;;;15.13;100.00
70015;BME280;57358;51.094;6.760;2023-05-23T01:05:14;101102.41;;;14.45;100.00
70015;BME280;57358;51.094;6.760;2023-05-23T01:07:44;101128.06;;;14.57;100.00
70015;BME280;57358;51.094;6.760;2023-05-23T01:10:11;101137.50;;;14.61;100.00
70015;BME280;57358;51.094;6.760;2023-05-23T01:13:16;101208.00;;;15.04;100.00
70015;BME280;57358;51.094;6.760;2023-05-23T01:18:39;101133.25;;;14.44;100.00
70015;BME280;57358;51.094;6.760;2023-05-23T01:21:13;101141.75;;;14.49;100.00
70015;BME280;57358;51.094;6.760;2023-05-23T01:26:37;101201.56;;;14.79;100.00
70015;BME280;57358;51.094;6.760;2023-05-23T01:29:10;101213.66;;;14.83;100.00
70015;BME280;57358;51.094;6.760;2023-05-23T01:31:42;101191.13;;;14.78;100.00
70015;BME280;57358;51.094;6.760;2023-05-23T01:34:11;101196.09;;;14.82;100.00
70015;BME280;57358;51.094;6.760;2023-05-23T01:36:42;101165.44;;;14.65;99.89
70015;BME280;57358;51.094;6.760;2023-05-23T01:39:10;101204.59;;;14.87;99.71
70015;BME280;57358;51.094;6.760;2023-05-23T01:41:37;101201.94;;;14.87;99.14
70015;BME280;57358;51.094;6.760;2023-05-23T01:44:03;101140.13;;;14.47;100.00
70015;BME280;57358;51.094;6.760;2023-05-23T01:46:31;101181.78;;;14.72;99.94
70015;BME280;57358;51.094;6.760;2023-05-23T01:49:02;101207.72;;;14.80;99.92
70015;BME280;57358;51.094;6.760;2023-05-23T01:51:29;101200.81;;;14.77;100.00
70015;BME280;57358;51.094;6.760;2023-05-23T01:53:56;101206.84;;;14.79;99.68
70015;BME280;57358;51.094;6.760;2023-05-23T01:56:23;101203.47;;;14.77;99.15
70015;BME280;57358;51.094;6.760;2023-05-23T01:58:50;101161.91;;;14.50;100.00
70015;BME280;57358;51.094;6.760;2023-05-23T02:01:16;101143.34;;;14.38;99.85
70015;BME280;57358;51.094;6.760;2023-05-23T02:03:43;101208.09;;;14.73;99.89
70015;BME280;57358;51.094;6.760;2023-05-23T02:06:09;101208.75;;;14.77;100.00
70015;BME280;57358;51.094;6.760;2023-05-23T02:08:36;101186.94;;;14.59;100.00
70015;BME280;57358;51.094;6.760;2023-05-23T02:11:03;101221.50;;;14.70;100.00
70015;BME280;57358;51.094;6.760;2023-05-23T02:13:29;101235.66;;;14.69;100.00
70015;BME280;57358;51.094;6.760;2023-05-23T02:15:56;101207.69;;;14.65;100.00
70015;BME280;57358;51.094;6.760;2023-05-23T02:18:22;101221.94;;;14.63;100.00
70015;BME280;57358;51.094;6.760;2023-05-23T02:20:51;101225.34;;;14.65;100.00
70015;BME280;57358;51.094;6.760;2023-05-23T02:23:18;101227.91;;;14.66;100.00
70015;BME280;57358;51.094;6.760;2023-05-23T02:25:44;101037.41;;;13.56;100.00
70015;BME280;57358;51.094;6.760;2023-05-23T02:28:11;101222.78;;;14.63;100.00
70015;BME280;57358;51.094;6.760;2023-05-23T02:30:38;101191.81;;;14.51;100.00
70015;BME280;57358;51.094;6.760;2023-05-23T02:33:05;101179.56;;;14.35;100.00
70015;BME280;57358;51.094;6.760;2023-05-23T02:35:32;101229.88;;;14.63;100.00
70015;BME280;57358;51.094;6.760;2023-05-23T02:37:59;101235.59;;;14.55;100.00
70015;BME280;57358;51.094;6.760;2023-05-23T02:40:26;101185.75;;;14.20;100.00
70015;BME280;57358;51.094;6.760;2023-05-23T02:42:52;101188.69;;;14.30;100.00
70015;BME280;57358;51.094;6.760;2023-05-23T02:45:18;101019.97;;;13.23;100.00
70015;BME280;57358;51.094;6.760;2023-05-23T02:47:45;101247.03;;;14.55;100.00
70015;BME280;57358;51.094;6.760;2023-05-23T02:50:11;101250.44;;;14.58;100.00
70015;BME280;57358;51.094;6.760;2023-05-23T02:52:38;101250.34;;;14.59;100.00
70015;BME280;57358;51.094;6.760;2023-05-23T02:55:05;101247.69;;;14.59;100.00
70015;BME280;57358;51.094;6.760;2023-05-23T02:57:31;101187.44;;;14.21;100.00
70015;BME280;57358;51.094;6.760;2023-05-23T02:59:58;101189.06;;;14.24;100.00
70015;BME280;57358;51.094;6.760;2023-05-23T03:02:24;101127.88;;;13.87;100.00
70015;BME280;57358;51.094;6.760;2023-05-23T03:04:51;101154.59;;;13.96;100.00
70015;BME280;57358;51.094;6.760;2023-05-23T03:07:18;101255.03;;;14.54;100.00
70015;BME280;57358;51.094;6.760;2023-05-23T03:09:53;101251.53;;;14.53;100.00
70015;BME280;57358;51.094;6.760;2023-05-23T03:12:19;101196.28;;;14.06;100.00
70015;BME280;57358;51.094;6.760;2023-05-23T03:14:46;101250.50;;;14.42;100.00
70015;BME280;57358;51.094;6.760;2023-05-23T03:17:12;101229.50;;;14.24;100.00
70015;BME280;57358;51.094;6.760;2023-05-23T03:19:39;101178.69;;;13.90;100.00
70015;BME280;57358;51.094;6.760;2023-05-23T03:22:05;101193.25;;;13.98;100.00
70015;BME280;57358;51.094;6.760;2023-05-23T03:24:32;101268.56;;;14.33;100.00
70015;BME280;57358;51.094;6.760;2023-05-23T03:26:58;101248.16;;;14.21;100.00
70015;BME280;57358;51.094;6.760;2023-05-23T03:29:26;101262.94;;;14.40;100.00
70015;BME280;57358;51.094;6.760;2023-05-23T03:31:53;101241.72;;;14.11;100.00
70015;BME280;57358;51.094;6.760;2023-05-23T03:34:19;101256.28;;;14.32;100.00
70015;BME280;57358;51.094;6.760;2023-05-23T03:36:46;101262.41;;;14.33;100.00
70015;BME280;57358;51.094;6.760;2023-05-23T03:39:12;101225.84;;;13.96;100.00
70015;BME280;57358;51.094;6.760;2023-05-23T03:41:38;101272.59;;;14.25;100.00
70015;BME280;57358;51.094;6.760;2023-05-23T03:44:05;101192.78;;;13.75;100.00
70015;BME280;57358;51.094;6.760;2023-05-23T03:46:32;101204.94;;;13.77;100.00
70015;BME280;57358;51.094;6.760;2023-05-23T03:48:58;101185.88;;;13.72;100.00
70015;BME280;57358;51.094;6.760;2023-05-23T03:51:25;101251.25;;;14.13;100.00
70015;BME280;57358;51.094;6.760;2023-05-23T03:53:51;101075.50;;;13.04;100.00
70015;BME280;57358;51.094;6.760;2023-05-23T03:56:17;101239.63;;;14.02;100.00
70015;BME280;57358;51.094;6.760;2023-05-23T03:58:44;101174.25;;;13.61;100.00
70015;BME280;57358;51.094;6.760;2023-05-23T04:01:11;101247.00;;;14.11;100.00
70015;BME280;57358;51.094;6.760;2023-05-23T04:03:37;101276.75;;;14.29;100.00
70015;BME280;57358;51.094;6.760;2023-05-23T04:06:04;101233.84;;;13.95;100.00
70015;BME280;57358;51.094;6.760;2023-05-23T04:08:31;101110.78;;;13.17;100.00
70015;BME280;57358;51.094;6.760;2023-05-23T04:11:00;101224.88;;;13.67;100.00
70015;BME280;57358;51.094;6.760;2023-05-23T04:13:27;101299.19;;;14.22;100.00
70015;BME280;57358;51.094;6.760;2023-05-23T04:15:54;101203.53;;;13.56;100.00
70015;BME280;57358;51.094;6.760;2023-05-23T04:18:21;101109.94;;;13.01;100.00
70015;BME280;57358;51.094;6.760;2023-05-23T04:20:48;101304.38;;;14.23;100.00
70015;BME280;57358;51.094;6.760;2023-05-23T04:23:15;101169.69;;;13.32;100.00
70015;BME280;57358;51.094;6.760;2023-05-23T04:25:41;101254.81;;;13.82;100.00
70015;BME280;57358;51.094;6.760;2023-05-23T04:28:10;101324.50;;;14.10;100.00
70015;BME280;57358;51.094;6.760;2023-05-23T04:30:37;101222.91;;;13.55;100.00
70015;BME280;57358;51.094;6.760;2023-05-23T04:33:03;101299.81;;;13.95;100.00
70015;BME280;57358;51.094;6.760;2023-05-23T04:35:30;101309.00;;;14.04;100.00
70015;BME280;57358;51.094;6.760;2023-05-23T04:37:59;101165.69;;;13.25;100.00
70015;BME280;57358;51.094;6.760;2023-05-23T04:40:28;101316.66;;;14.08;100.00
70015;BME280;57358;51.094;6.760;2023-05-23T04:42:54;101321.84;;;14.10;100.00
70015;BME280;57358;51.094;6.760;2023-05-23T04:45:22;101233.72;;;13.50;100.00
70015;BME280;57358;51.094;6.760;2023-05-23T04:47:48;101243.22;;;13.69;100.00
70015;BME280;57358;51.094;6.760;2023-05-23T04:50:15;101310.03;;;14.01;100.00
70015;BME280;57358;51.094;6.760;2023-05-23T04:52:41;101274.66;;;13.73;100.00
70015;BME280;57358;51.094;6.760;2023-05-23T04:55:08;101329.50;;;14.14;100.00
70015;BME280;57358;51.094;6.760;2023-05-23T04:57:35;101325.69;;;14.04;100.00
70015;BME280;57358;51.094;6.760;2023-05-23T05:00:03;101305.88;;;13.81;100.00
70015;BME280;57358;51.094;6.760;2023-05-23T05:02:35;101285.28;;;13.88;100.00
70015;BME280;57358;51.094;6.760;2023-05-23T05:05:02;101286.88;;;13.90;100.00
70015;BME280;57358;51.094;6.760;2023-05-23T05:07:32;101266.81;;;13.72;100.00
70015;BME280;57358;51.094;6.760;2023-05-23T05:10:01;101211.53;;;13.39;100.00
70015;BME280;57358;51.094;6.760;2023-05-23T05:12:27;101341.84;;;14.14;100.00
70015;BME280;57358;51.094;6.760;2023-05-23T05:14:54;101292.16;;;13.90;100.00
70015;BME280;57358;51.094;6.760;2023-05-23T05:17:20;101284.94;;;13.78;100.00
70015;BME280;57358;51.094;6.760;2023-05-23T05:19:47;101336.31;;;14.19;100.00
70015;BME280;57358;51.094;6.760;2023-05-23T05:22:13;101351.72;;;14.10;100.00
70015;BME280;57358;51.094;6.760;2023-05-23T05:24:40;101355.41;;;14.08;100.00
70015;BME280;57358;51.094;6.760;2023-05-23T05:27:07;101223.38;;;13.31;100.00
70015;BME280;57358;51.094;6.760;2023-05-23T05:29:35;101300.41;;;13.68;100.00
70015;BME280;57358;51.094;6.760;2023-05-23T05:32:01;101276.44;;;13.57;100.00
70015;BME280;57358;51.094;6.760;2023-05-23T05:34:28;101309.88;;;13.72;100.00
70015;BME280;57358;51.094;6.760;2023-05-23T05:36:55;101286.38;;;13.52;100.00
70015;BME280;57358;51.094;6.760;2023-05-23T05:39:23;101333.03;;;13.83;100.00
70015;BME280;57358;51.094;6.760;2023-05-23T05:41:51;101152.22;;;12.82;100.00
70015;BME280;57358;51.094;6.760;2023-05-23T05:44:17;101268.97;;;13.49;100.00
70015;BME280;57358;51.094;6.760;2023-05-23T05:46:44;101327.91;;;13.80;100.00
70015;BME280;57358;51.094;6.760;2023-05-23T05:49:10;101352.34;;;14.00;100.00
70015;BME280;57358;51.094;6.760;2023-05-23T05:51:37;101290.13;;;13.64;100.00
70015;BME280;57358;51.094;6.760;2023-05-23T05:54:04;101387.22;;;14.21;100.00
70015;BME280;57358;51.094;6.760;2023-05-23T05:56:31;101272.25;;;13.53;100.00
70015;BME280;57358;51.094;6.760;2023-05-23T05:58:57;101315.56;;;13.81;100.00
70015;BME280;57358;51.094;6.760;2023-05-23T06:01:24;101386.28;;;14.22;100.00
70015;BME280;57358;51.094;6.760;2023-05-23T06:03:51;101385.00;;;14.29;100.00
70015;BME280;57358;51.094;6.760;2023-05-23T06:06:18;101385.59;;;14.34;100.00
70015;BME280;57358;51.094;6.760;2023-05-23T06:08:45;101391.16;;;14.29;100.00
70015;BME280;57358;51.094;6.760;2023-05-23T06:11:11;101362.47;;;14.23;100.00
70015;BME280;57358;51.094;6.760;2023-05-23T06:13:38;101340.84;;;14.01;100.00
70015;BME280;57358;51.094;6.760;2023-05-23T06:16:04;101370.38;;;14.23;100.00
70015;BME280;57358;51.094;6.760;2023-05-23T06:18:31;101381.44;;;14.30;100.00
70015;BME280;57358;51.094;6.760;2023-05-23T06:20:58;101343.38;;;14.02;100.00
70015;BME280;57358;51.094;6.760;2023-05-23T06:23:25;101278.75;;;13.63;100.00
70015;BME280;57358;51.094;6.760;2023-05-23T06:25:52;101296.94;;;13.68;100.00
70015;BME280;57358;51.094;6.760;2023-05-23T06:28:18;101236.38;;;13.34;100.00
70015;BME280;57358;51.094;6.760;2023-05-23T06:30:45;101373.78;;;14.09;100.00
70015;BME280;57358;51.094;6.760;2023-05-23T06:33:11;101401.09;;;14.40;100.00
70015;BME280;57358;51.094;6.760;2023-05-23T06:35:38;101330.81;;;13.91;100.00
70015;BME280;57358;51.094;6.760;2023-05-23T06:38:05;101261.97;;;13.64;100.00
70015;BME280;57358;51.094;6.760;2023-05-23T06:40:31;101305.94;;;13.95;100.00
70015;BME280;57358;51.094;6.760;2023-05-23T06:42:57;101345.66;;;14.24;100.00
70015;BME280;57358;51.094;6.760;2023-05-23T06:45:24;101312.69;;;14.01;100.00
70015;BME280;57358;51.094;6.760;2023-05-23T06:47:51;101331.72;;;14.06;100.00
70015;BME280;57358;51.094;6.760;2023-05-23T06:50:17;101308.94;;;14.05;100.00
70015;BME280;57358;51.094;6.760;2023-05-23T06:52:47;101367.03;;;14.35;100.00
70015;BME280;57358;51.094;6.760;2023-05-23T06:55:13;101417.19;;;14.67;100.00
70015;BME280;57358;51.094;6.760;2023-05-23T06:57:46;101423.84;;;14.59;100.00
70015;BME280;57358;51.094;6.760;2023-05-23T07:00:16;101394.78;;;14.43;100.00
70015;BME280;57358;51.094;6.760;2023-05-23T07:02:42;101349.00;;;14.12;100.00
70015;BME280;57358;51.094;6.760;2023-05-23T07:05:11;101424.91;;;14.70;100.00
70015;BME280;57358;51.094;6.760;2023-05-23T07:07:38;101362.63;;;14.20;100.00
70015;BME280;57358;51.094;6.760;2023-05-23T07:10:05;101425.44;;;14.61;100.00
70015;BME280;57358;51.094;6.760;2023-05-23T07:12:31;101429.41;;;14.84;100.00
70015;BME280;57358;51.094;6.760;2023-05-23T07:15:00;101392.38;;;14.70;100.00
70015;BME280;57358;51.094;6.760;2023-05-23T07:17:26;101438.22;;;14.99;100.00
70015;BME280;57358;51.094;6.760;2023-05-23T07:19:55;101384.69;;;14.65;100.00
70015;BME280;57358;51.094;6.760;2023-05-23T07:22:21;101363.06;;;14.59;100.00
70015;BME280;57358;51.094;6.760;2023-05-23T07:24:48;101411.84;;;14.83;100.00
70015;BME280;57358;51.094;6.760;2023-05-23T07:27:14;101376.19;;;14.60;100.00
70015;BME280;57358;51.094;6.760;2023-05-23T07:29:41;101427.91;;;14.94;100.00
70015;BME280;57358;51.094;6.760;2023-05-23T07:32:07;101424.19;;;14.83;99.66
70015;BME280;57358;51.094;6.760;2023-05-23T07:34:34;101303.94;;;14.15;99.43
70015;BME280;57358;51.094;6.760;2023-05-23T07:37:00;101376.38;;;14.57;99.55
70015;BME280;57358;51.094;6.760;2023-05-23T07:39:27;101218.84;;;13.65;99.15
70015;BME280;57358;51.094;6.760;2023-05-23T07:41:53;101440.50;;;15.05;97.30
70015;BME280;57358;51.094;6.760;2023-05-23T07:44:20;101402.38;;;14.79;96.73
70015;BME280;57358;51.094;6.760;2023-05-23T07:46:50;101412.81;;;14.96;96.00
70015;BME280;57358;51.094;6.760;2023-05-23T07:49:19;101403.91;;;14.83;95.57
70015;BME280;57358;51.094;6.760;2023-05-23T07:51:46;101405.38;;;14.73;97.13
70015;BME280;57358;51.094;6.760;2023-05-23T07:54:12;101370.84;;;14.46;97.54
70015;BME280;57358;51.094;6.760;2023-05-23T07:56:41;101381.22;;;14.49;97.20
70015;BME280;57358;51.094;6.760;2023-05-23T07:59:08;101362.25;;;14.42;96.90
70015;BME280;57358;51.094;6.760;2023-05-23T08:01:35;101424.00;;;14.71;96.77
70015;BME280;57358;51.094;6.760;2023-05-23T08:04:02;101439.91;;;14.86;96.36
70015;BME280;57358;51.094;6.760;2023-05-23T08:06:31;101411.13;;;14.65;95.57
70015;BME280;57358;51.094;6.760;2023-05-23T08:08:59;101287.22;;;13.84;96.89
70015;BME280;57358;51.094;6.760;2023-05-23T08:11:26;101447.22;;;14.81;97.57
70015;BME280;57358;51.094;6.760;2023-05-23T08:13:54;101456.38;;;14.59;98.30
70015;BME280;57358;51.094;6.760;2023-05-23T08:16:21;101469.59;;;14.59;100.00
70015;BME280;57358;51.094;6.760;2023-05-23T08:18:48;101418.06;;;14.20;100.00
70015;BME280;57358;51.094;6.760;2023-05-23T08:21:14;101443.69;;;14.34;100.00
70015;BME280;57358;51.094;6.760;2023-05-23T08:23:41;101465.25;;;14.58;100.00
70015;BME280;57358;51.094;6.760;2023-05-23T08:26:07;101467.97;;;14.72;99.49
70015;BME280;57358;51.094;6.760;2023-05-23T08:28:33;101444.94;;;14.74;97.07
70015;BME280;57358;51.094;6.760;2023-05-23T08:31:01;101314.63;;;14.13;96.11
70015;BME280;57358;51.094;6.760;2023-05-23T08:33:28;101449.44;;;14.88;96.12
70015;BME280;57358;51.094;6.760;2023-05-23T08:35:55;101376.81;;;14.49;95.35
70015;BME280;57358;51.094;6.760;2023-05-23T08:38:21;101409.78;;;14.42;94.21
70015;BME280;57358;51.094;6.760;2023-05-23T08:40:50;101456.88;;;14.82;93.63
70015;BME280;57358;51.094;6.760;2023-05-23T08:43:19;101348.94;;;14.13;92.61
70015;BME280;57358;51.094;6.760;2023-05-23T08:45:46;101440.41;;;14.76;92.65
70015;BME280;57358;51.094;6.760;2023-05-23T08:48:16;101467.25;;;14.85;93.73
70015;BME280;57358;51.094;6.760;2023-05-23T08:50:45;101489.00;;;14.90;95.84
70015;BME280;57358;51.094;6.760;2023-05-23T08:53:16;101457.06;;;14.63;94.87
70015;BME280;57358;51.094;6.760;2023-05-23T08:55:46;101402.91;;;14.24;95.24
70015;BME280;57358;51.094;6.760;2023-05-23T08:58:14;101487.16;;;14.60;96.20
70015;BME280;57358;51.094;6.760;2023-05-23T09:00:41;101494.72;;;14.66;95.72
70015;BME280;57358;51.094;6.760;2023-05-23T09:03:09;101441.53;;;14.09;96.36
70015;BME280;57358;51.094;6.760;2023-05-23T09:05:37;101413.94;;;13.83;97.40
70015;BME280;57358;51.094;6.760;2023-05-23T09:08:04;101371.13;;;13.62;97.62
70015;BME280;57358;51.094;6.760;2023-05-23T09:10:31;101373.94;;;13.74;97.87
70015;BME280;57358;51.094;6.760;2023-05-23T09:12:57;101498.53;;;14.45;96.39
70015;BME280;57358;51.094;6.760;2023-05-23T09:15:24;101450.31;;;13.93;96.33
70015;BME280;57358;51.094;6.760;2023-05-23T09:17:52;101504.34;;;14.20;96.40
70015;BME280;57358;51.094;6.760;2023-05-23T09:20:19;101485.66;;;14.07;98.07
70015;BME280;57358;51.094;6.760;2023-05-23T09:22:48;101441.31;;;13.64;98.03
70015;BME280;57358;51.094;6.760;2023-05-23T09:25:14;101468.25;;;13.87;98.55
70015;BME280;57358;51.094;6.760;2023-05-23T09:27:44;101528.53;;;14.44;97.33
70015;BME280;57358;51.094;6.760;2023-05-23T09:30:13;101496.44;;;14.67;95.61
70015;BME280;57358;51.094;6.760;2023-05-23T09:32:40;101553.72;;;15.43;94.07
70015;BME280;57358;51.094;6.760;2023-05-23T09:35:08;101492.94;;;15.27;90.90
70015;BME280;57358;51.094;6.760;2023-05-23T09:37:43;101490.13;;;15.16;88.79
70015;BME280;57358;51.094;6.760;2023-05-23T09:40:15;101476.41;;;14.63;89.17
70015;BME280;57358;51.094;6.760;2023-05-23T09:42:46;101487.88;;;14.30;91.43
70015;BME280;57358;51.094;6.760;2023-05-23T09:45:14;101375.53;;;13.28;92.57
70015;BME280;57358;51.094;6.760;2023-05-23T09:47:51;101474.75;;;13.64;94.25
70015;BME280;57358;51.094;6.760;2023-05-23T09:50:18;101512.50;;;13.82;95.79
70015;BME280;57358;51.094;6.760;2023-05-23T09:52:45;101353.03;;;12.87;94.80
70015;BME280;57358;51.094;6.760;2023-05-23T09:55:12;101523.22;;;13.79;95.00
70015;BME280;57358;51.094;6.760;2023-05-23T09:57:41;101516.41;;;13.74;95.19
70015;BME280;57358;51.094;6.760;2023-05-23T10:00:09;101471.69;;;13.38;95.37
70015;BME280;57358;51.094;6.760;2023-05-23T10:05:11;101531.00;;;13.64;94.21
70015;BME280;57358;51.094;6.760;2023-05-23T10:07:43;101527.13;;;13.71;93.25
70015;BME280;57358;51.094;6.760;2023-05-23T10:10:11;101422.69;;;13.16;91.59
70015;BME280;57358;51.094;6.760;2023-05-23T10:12:42;101396.34;;;12.99;90.28
70015;BME280;57358;51.094;6.760;2023-05-23T10:15:14;101500.03;;;13.85;89.28
70015;BME280;57358;51.094;6.760;2023-05-23T10:17:56;101506.50;;;13.95;89.79
70015;BME280;57358;51.094;6.760;2023-05-23T10:20:29;101499.41;;;13.80;89.29
70015;BME280;57358;51.094;6.760;2023-05-23T10:22:59;101462.41;;;13.64;88.62
70015;BME280;57358;51.094;6.760;2023-05-23T10:25:27;101476.78;;;13.59;88.39
70015;BME280;57358;51.094;6.760;2023-05-23T10:27:55;101340.56;;;12.73;87.81
70015;BME280;57358;51.094;6.760;2023-05-23T10:30:29;101383.31;;;12.96;88.31
70015;BME280;57358;51.094;6.760;2023-05-23T10:32:57;101514.78;;;13.72;88.35
70015;BME280;57358;51.094;6.760;2023-05-23T10:38:27;101514.41;;;13.95;87.49
70015;BME280;57358;51.094;6.760;2023-05-23T10:41:09;101495.59;;;13.86;85.42
70015;BME280;57358;51.094;6.760;2023-05-23T10:43:56;101433.38;;;13.48;84.67
70015;BME280;57358;51.094;6.760;2023-05-23T10:46:50;101506.63;;;14.10;85.54
70015;BME280;57358;51.094;6.760;2023-05-23T10:49:18;101504.91;;;14.09;84.16
70015;BME280;57358;51.094;6.760;2023-05-23T10:51:51;101422.47;;;13.88;83.65
70015;BME280;57358;51.094;6.760;2023-05-23T10:54:18;101527.34;;;14.81;83.22
70015;BME280;57358;51.094;6.760;2023-05-23T10:57:04;101473.50;;;14.84;80.46
70015;BME280;57358;51.094;6.760;2023-05-23T10:59:31;101473.63;;;15.41;78.33
70015;BME280;57358;51.094;6.760;2023-05-23T11:01:59;101312.66;;;14.78;75.52
70015;BME280;57358;51.094;6.760;2023-05-23T11:04:29;101355.16;;;15.46;74.24
70015;BME280;57358;51.094;6.760;2023-05-23T11:06:59;101359.53;;;15.76;72.35
70015;BME280;57358;51.094;6.760;2023-05-23T11:09:26;101352.69;;;16.13;71.93
70015;BME280;57358;51.094;6.760;2023-05-23T11:14:31;101256.59;;;16.64;68.50
70015;BME280;57358;51.094;6.760;2023-05-23T11:17:17;101287.28;;;17.44;66.47
70015;BME280;57358;51.094;6.760;2023-05-23T11:20:07;101128.94;;;16.83;63.77
70015;BME280;57358;51.094;6.760;2023-05-23T11:22:35;101148.06;;;16.50;64.81
70015;BME280;57358;51.094;6.760;2023-05-23T11:25:07;101187.50;;;16.54;64.80
70015;BME280;57358;51.094;6.760;2023-05-23T11:27:36;101207.94;;;16.78;65.24
70015;BME280;57358;51.094;6.760;2023-05-23T11:32:34;101165.00;;;16.47;65.11
70015;BME280;57358;51.094;6.760;2023-05-23T11:35:05;101128.69;;;16.24;64.78
70015;BME280;57358;51.094;6.760;2023-05-23T11:37:32;101010.31;;;15.22;65.06
70015;BME280;57358;51.094;6.760;2023-05-23T11:40:35;101188.81;;;15.96;66.67
70015;BME280;57358;51.094;6.760;2023-05-23T11:43:04;101154.91;;;15.75;66.48
70015;BME280;57358;51.094;6.760;2023-05-23T11:45:32;101143.53;;;15.73;66.24
70015;BME280;57358;51.094;6.760;2023-05-23T11:48:08;101209.09;;;16.10;66.86
70015;BME280;57358;51.094;6.760;2023-05-23T11:50:46;101113.91;;;15.41;66.64
70015;BME280;57358;51.094;6.760;2023-05-23T11:53:14;101105.59;;;15.20;67.08
70015;BME280;57358;51.094;6.760;2023-05-23T11:55:52;101223.50;;;15.37;68.78
70015;BME280;57358;51.094;6.760;2023-05-23T11:58:21;101237.06;;;15.60;68.80
70015;BME280;57358;51.094;6.760;2023-05-23T12:00:48;101229.97;;;15.87;67.24
70015;BME280;57358;51.094;6.760;2023-05-23T12:03:14;101132.59;;;16.05;65.28
70015;BME280;57358;51.094;6.760;2023-05-23T12:05:42;101190.09;;;17.06;63.63
70015;BME280;57358;51.094;6.760;2023-05-23T12:08:11;101113.63;;;17.00;62.11
70015;BME280;57358;51.094;6.760;2023-05-23T12:10:50;101100.84;;;16.81;62.75
70015;BME280;57358;51.094;6.760;2023-05-23T12:13:18;101041.84;;;16.66;62.02
70015;BME280;57358;51.094;6.760;2023-05-23T12:15:45;100930.47;;;15.42;63.25
70015;BME280;57358;51.094;6.760;2023-05-23T12:18:14;101122.75;;;16.07;64.61
70015;BME280;57358;51.094;6.760;2023-05-23T12:20:41;101177.63;;;16.31;64.92
70015;BME280;57358;51.094;6.760;2023-05-23T12:23:17;101031.88;;;16.07;63.11
70015;BME280;57358;51.094;6.760;2023-05-23T12:25:43;101134.56;;;16.79;62.78
70015;BME280;57358;51.094;6.760;2023-05-23T12:28:10;101040.44;;;16.86;61.01
70015;BME280;57358;51.094;6.760;2023-05-23T12:30:42;101023.22;;;17.27;59.78
70015;BME280;57358;51.094;6.760;2023-05-23T12:33:09;100946.78;;;16.85;59.80
70015;BME280;57358;51.094;6.760;2023-05-23T12:35:35;100991.66;;;17.35;59.05
70015;BME280;57358;51.094;6.760;2023-05-23T12:38:04;101000.66;;;17.57;58.67
70015;BME280;57358;51.094;6.760;2023-05-23T12:40:32;101024.69;;;17.66;59.23
70015;BME280;57358;51.094;6.760;2023-05-23T12:42:58;100982.72;;;17.25;58.60
70015;BME280;57358;51.094;6.760;2023-05-23T12:45:33;100974.03;;;18.03;57.06
70015;BME280;57358;51.094;6.760;2023-05-23T12:48:00;100936.19;;;18.33;55.30
70015;BME280;57358;51.094;6.760;2023-05-23T12:50:27;100652.88;;;17.14;53.33
70015;BME280;57358;51.094;6.760;2023-05-23T12:52:53;100662.56;;;17.04;54.14
70015;BME280;57358;51.094;6.760;2023-05-23T12:55:20;100674.44;;;16.42;55.04
70015;BME280;57358;51.094;6.760;2023-05-23T12:57:47;100737.06;;;16.08;55.50
70015;BME280;57358;51.094;6.760;2023-05-23T13:00:13;100896.47;;;16.97;55.84
70015;BME280;57358;51.094;6.760;2023-05-23T13:02:40;100910.56;;;16.49;57.67
70015;BME280;57358;51.094;6.760;2023-05-23T13:05:07;100901.16;;;16.21;57.74
70015;BME280;57358;51.094;6.760;2023-05-23T13:07:33;100924.25;;;16.19;58.17